TAF and METAR

Could not understand the following METAR

YTEF 141500Z AUTO 14008KT 9999 // NCD 31/08 Q1005
No TAF available for Telfer Airport
Telfer Airport in Australia at 296m

Latest 5 airports